Time;durP1;ratioP1;P1;durP2;ratioP2;P2;SDS_P1;SDS_P2;PMS_P1;PMS_P2;Temp;Humidity;BMP_temperature;BMP_pressure;BME280_temperature;BME280_humidity;BME280_pressure;Samples;Min_cycle;Max_cycle;Signal;HPM_P1;HPM_P2
2023/10/03 00:00:25;;;;;;;21.20;10.10;;;15.20;99.90;;;;;;5016646;28;20026;-68
2023/10/03 00:02:54;;;;;;;24.50;10.82;;;15.20;99.90;;;;;;5016299;28;20037;-68
2023/10/03 00:05:22;;;;;;;22.17;9.70;;;15.20;99.90;;;;;;5016260;28;20025;-68
2023/10/03 00:07:48;;;;;;;21.10;9.30;;;15.30;99.90;;;;;;5016172;28;20022;-69
2023/10/03 00:10:14;;;;;;;21.48;9.73;;;15.30;99.90;;;;;;5017010;28;20050;-68
2023/10/03 00:12:40;;;;;;;28.40;10.18;;;15.30;99.90;;;;;;5016939;28;20037;-68
2023/10/03 00:15:08;;;;;;;21.40;10.10;;;15.20;99.90;;;;;;5016199;28;20041;-68
2023/10/03 00:17:34;;;;;;;25.50;9.90;;;15.20;99.90;;;;;;5016353;28;20030;-68
2023/10/03 00:20:02;;;;;;;21.10;10.05;;;15.10;99.90;;;;;;5018850;28;20026;-68
2023/10/03 00:22:27;;;;;;;22.30;10.00;;;15.10;99.90;;;;;;5020844;28;20076;-68
2023/10/03 00:24:53;;;;;;;20.42;9.50;;;15.00;99.90;;;;;;5019993;28;20022;-68
2023/10/03 00:27:19;;;;;;;18.27;8.05;;;14.90;99.90;;;;;;5020211;28;20108;-68
2023/10/03 00:29:44;;;;;;;20.75;8.45;;;14.90;99.90;;;;;;5019928;28;20022;-68
2023/10/03 00:32:10;;;;;;;22.17;7.80;;;14.90;99.90;;;;;;5020914;28;20025;-68
2023/10/03 00:34:36;;;;;;;23.70;9.07;;;14.90;99.90;;;;;;5019744;28;20076;-68
2023/10/03 00:37:02;;;;;;;23.70;10.25;;;15.00;99.90;;;;;;5020267;28;20068;-68
2023/10/03 00:39:28;;;;;;;20.90;9.77;;;15.10;99.90;;;;;;5019695;28;20026;-68
2023/10/03 00:41:55;;;;;;;20.08;9.52;;;15.10;99.90;;;;;;5019773;28;20068;-68
2023/10/03 00:44:21;;;;;;;22.00;9.10;;;15.00;99.90;;;;;;5019505;28;20080;-68
2023/10/03 00:46:46;;;;;;;15.70;8.05;;;15.00;99.90;;;;;;5020501;28;20022;-68
2023/10/03 00:49:14;;;;;;;16.25;8.82;;;15.00;99.90;;;;;;5019523;28;20021;-68
2023/10/03 00:51:40;;;;;;;20.42;8.98;;;15.00;99.90;;;;;;5019437;28;20018;-68
2023/10/03 00:54:06;;;;;;;18.35;8.60;;;14.90;99.90;;;;;;5020298;28;20026;-68
2023/10/03 00:56:32;;;;;;;16.15;7.25;;;14.90;99.90;;;;;;5020380;28;20033;-68
2023/10/03 00:58:57;;;;;;;20.65;7.35;;;14.90;99.90;;;;;;5020294;28;20076;-68
2023/10/03 01:01:27;;;;;;;17.52;7.40;;;14.80;99.90;;;;;;5019280;28;20033;-68
2023/10/03 01:03:55;;;;;;;16.83;6.82;;;14.70;99.90;;;;;;5020112;28;20076;-68
2023/10/03 01:06:21;;;;;;;18.52;7.25;;;14.70;99.90;;;;;;5019189;28;20053;-68
2023/10/03 01:08:51;;;;;;;19.70;7.50;;;14.70;99.90;;;;;;5020044;28;20053;-68
2023/10/03 01:11:18;;;;;;;21.98;7.15;;;14.60;99.90;;;;;;5020241;28;20109;-68
2023/10/03 01:13:58;;;;;;;23.40;9.00;;;14.60;99.90;;;;;;5019053;28;20112;-68
2023/10/03 01:16:36;;;;;;;18.13;8.02;;;14.60;99.90;;;;;;5019421;28;20038;-68
2023/10/03 01:19:15;;;;;;;19.02;8.05;;;14.60;99.90;;;;;;5019122;28;20052;-68
2023/10/03 01:21:46;;;;;;;19.02;7.95;;;14.60;99.90;;;;;;5019781;28;20061;-68
2023/10/03 01:24:20;;;;;;;17.25;6.82;;;14.60;99.90;;;;;;5019764;28;20037;-68
2023/10/03 01:26:46;;;;;;;16.27;6.82;;;14.50;99.90;;;;;;5019366;28;20030;-68
2023/10/03 01:29:12;;;;;;;17.40;7.07;;;14.50;99.90;;;;;;5018943;28;20118;-69
2023/10/03 01:31:40;;;;;;;16.63;7.25;;;14.40;99.90;;;;;;5018473;28;20054;-68
2023/10/03 01:34:05;;;;;;;16.63;6.68;;;14.50;99.90;;;;;;5018674;28;20031;-68
2023/10/03 01:36:31;;;;;;;18.80;7.35;;;14.60;99.90;;;;;;5019014;28;20030;-68
2023/10/03 01:38:57;;;;;;;15.43;6.93;;;14.70;99.90;;;;;;5018674;28;20033;-68
2023/10/03 01:41:23;;;;;;;16.25;6.75;;;14.70;99.90;;;;;;5019555;28;20025;-68
2023/10/03 01:43:49;;;;;;;19.60;7.18;;;14.70;99.90;;;;;;5018506;28;20025;-68
2023/10/03 01:46:17;;;;;;;19.98;6.72;;;14.50;99.90;;;;;;5018641;28;20026;-68
2023/10/03 01:48:43;;;;;;;15.38;6.72;;;14.60;99.90;;;;;;5018522;28;20022;-68
2023/10/03 01:51:09;;;;;;;14.27;6.75;;;14.60;99.90;;;;;;5018672;28;20029;-68
2023/10/03 01:53:36;;;;;;;17.60;6.47;;;14.50;99.90;;;;;;5019324;28;20021;-68
2023/10/03 01:56:03;;;;;;;14.70;6.70;;;14.40;99.90;;;;;;5018982;28;20073;-68
2023/10/03 01:58:30;;;;;;;19.70;6.07;;;14.40;99.90;;;;;;5019145;28;20049;-69
2023/10/03 02:00:55;;;;;;;20.02;7.18;;;14.40;99.90;;;;;;5018632;28;20117;-68
2023/10/03 02:03:22;;;;;;;13.88;7.20;;;14.40;99.90;;;;;;5018039;28;20041;-68
2023/10/03 02:05:48;;;;;;;17.98;7.10;;;14.40;99.90;;;;;;5018904;28;20025;-68
2023/10/03 02:08:15;;;;;;;18.23;7.45;;;14.30;99.90;;;;;;5018554;28;20122;-68
2023/10/03 02:10:44;;;;;;;19.75;6.82;;;14.20;99.90;;;;;;5018306;28;20053;-68
2023/10/03 02:13:14;;;;;;;17.17;8.02;;;14.10;99.90;;;;;;5018331;28;20049;-68
2023/10/03 02:15:42;;;;;;;17.08;7.20;;;14.20;99.90;;;;;;5018475;28;20033;-68
2023/10/03 02:18:12;;;;;;;13.93;6.25;;;14.30;99.90;;;;;;5018329;28;20079;-70
2023/10/03 02:20:51;;;;;;;18.73;7.90;;;14.40;99.90;;;;;;5018292;28;20026;-70
2023/10/03 02:23:19;;;;;;;14.77;6.85;;;14.50;99.90;;;;;;5018625;28;20069;-70
2023/10/03 02:25:48;;;;;;;16.45;6.95;;;14.50;99.90;;;;;;5018762;28;20029;-70
2023/10/03 02:28:15;;;;;;;15.32;6.88;;;14.50;99.90;;;;;;5018853;28;20026;-72
2023/10/03 02:30:41;;;;;;;20.27;6.90;;;14.50;99.90;;;;;;5018574;28;20103;-70
2023/10/03 02:33:12;;;;;;;15.15;7.18;;;14.40;99.90;;;;;;5018568;28;20103;-70
2023/10/03 02:35:42;;;;;;;;;;;14.40;99.90;;;;;;5019310;28;20080;-70
2023/10/03 02:38:12;;;;;;;15.38;7.05;;;14.40;99.90;;;;;;5018491;28;19912;-70
2023/10/03 02:40:40;;;;;;;13.32;6.07;;;14.30;99.90;;;;;;5018305;28;20022;-70
2023/10/03 02:43:06;;;;;;;15.23;5.95;;;14.40;99.90;;;;;;5018155;28;20026;-70
2023/10/03 02:45:32;;;;;;;17.73;7.03;;;14.20;99.90;;;;;;5018178;28;20030;-70
2023/10/03 02:48:07;;;;;;;16.15;6.50;;;14.10;99.90;;;;;;5018775;28;20018;-72
2023/10/03 02:50:34;;;;;;;16.30;6.65;;;14.30;99.90;;;;;;5018304;28;20025;-71
2023/10/03 02:53:00;;;;;;;18.27;6.13;;;14.40;99.90;;;;;;5018207;28;20022;-71
2023/10/03 02:55:25;;;;;;;14.80;7.47;;;14.40;99.90;;;;;;5018067;28;20022;-71
2023/10/03 02:57:51;;;;;;;16.08;6.75;;;14.40;99.90;;;;;;5017154;28;20030;-71
2023/10/03 03:00:19;;;;;;;20.52;7.70;;;14.20;99.90;;;;;;5017220;28;20026;-71
2023/10/03 03:02:46;;;;;;;15.13;6.78;;;14.00;99.90;;;;;;5017498;28;20033;-70
2023/10/03 03:05:15;;;;;;;16.15;6.50;;;14.00;99.90;;;;;;5018097;28;20026;-72
2023/10/03 03:07:46;;;;;;;19.23;7.38;;;14.00;99.90;;;;;;5018006;28;20073;-71
2023/10/03 03:10:17;;;;;;;22.20;7.30;;;14.00;99.90;;;;;;5017844;28;20105;-71
2023/10/03 03:12:44;;;;;;;15.20;6.15;;;14.00;99.90;;;;;;5017086;28;20265;-71
2023/10/03 03:15:23;;;;;;;16.85;7.55;;;14.00;99.90;;;;;;5017805;28;20088;-70
2023/10/03 03:17:52;;;;;;;13.95;6.40;;;14.10;99.90;;;;;;5017679;28;20037;-71
2023/10/03 03:20:18;;;;;;;19.10;8.07;;;14.30;99.90;;;;;;5016809;28;20076;-72
2023/10/03 03:22:48;;;;;;;13.45;6.82;;;14.30;99.90;;;;;;5018060;28;20057;-71
2023/10/03 03:25:25;;;;;;;17.08;7.07;;;14.40;99.90;;;;;;5016799;28;20026;-70
2023/10/03 03:27:56;;;;;;;18.02;7.30;;;14.50;99.90;;;;;;5016887;28;20022;-71
2023/10/03 03:32:54;;;;;;;;;;;14.40;99.90;;;;;;5018517;28;20131;-71
2023/10/03 03:35:24;;;;;;;14.93;6.57;;;14.40;99.90;;;;;;5017108;28;20063;-71
2023/10/03 03:37:55;;;;;;;19.23;6.50;;;14.30;99.90;;;;;;5017627;28;20033;-72
2023/10/03 03:40:29;;;;;;;16.67;6.53;;;14.40;99.90;;;;;;5016539;28;20030;-70
2023/10/03 03:42:59;;;;;;;20.30;6.55;;;14.40;99.90;;;;;;5017841;28;20049;-71
2023/10/03 03:45:26;;;;;;;14.18;6.25;;;14.40;99.90;;;;;;5016296;28;20059;-71
2023/10/03 03:47:53;;;;;;;15.88;6.40;;;14.40;99.90;;;;;;5017283;28;20025;-71
2023/10/03 03:50:20;;;;;;;14.32;5.43;;;14.40;99.90;;;;;;5017662;28;20053;-72
2023/10/03 03:52:45;;;;;;;19.20;6.53;;;14.40;99.90;;;;;;5017305;28;20022;-71
2023/10/03 03:55:11;;;;;;;15.93;6.75;;;14.20;99.90;;;;;;5017326;28;20100;-72
2023/10/03 03:57:38;;;;;;;22.20;6.10;;;14.10;99.90;;;;;;5017157;28;20065;-72
2023/10/03 04:00:12;;;;;;;19.15;6.43;;;14.10;99.90;;;;;;5017197;28;20108;-71
2023/10/03 04:02:41;;;;;;;16.75;5.50;;;14.10;99.90;;;;;;5016328;28;20121;-71
2023/10/03 04:05:07;;;;;;;13.90;6.05;;;14.00;99.90;;;;;;5016235;28;20022;-71
2023/10/03 04:07:34;;;;;;;16.35;6.07;;;14.00;99.90;;;;;;5017133;28;20068;-71
2023/10/03 04:10:00;;;;;;;14.40;5.95;;;14.20;99.90;;;;;;5017189;28;20096;-72
2023/10/03 04:12:26;;;;;;;16.48;7.35;;;14.10;99.90;;;;;;5017058;28;20088;-71
2023/10/03 04:14:52;;;;;;;15.57;6.97;;;14.10;99.90;;;;;;5016175;28;20120;-72
2023/10/03 04:17:18;;;;;;;13.60;6.68;;;14.10;99.90;;;;;;5016328;28;20034;-71
2023/10/03 04:19:45;;;;;;;19.23;7.32;;;14.20;99.90;;;;;;5016571;28;20033;-71
2023/10/03 04:22:11;;;;;;;17.33;6.63;;;14.20;99.90;;;;;;5016402;28;20053;-71
2023/10/03 04:24:36;;;;;;;18.20;7.30;;;14.20;99.90;;;;;;5016086;28;20026;-72
2023/10/03 04:27:03;;;;;;;15.45;6.05;;;14.20;99.90;;;;;;5017184;28;20027;-71
2023/10/03 04:29:28;;;;;;;13.60;6.40;;;14.10;99.90;;;;;;5016699;28;20108;-71
2023/10/03 04:31:54;;;;;;;17.30;6.63;;;14.00;99.90;;;;;;5016362;28;20105;-71
2023/10/03 04:34:20;;;;;;;15.02;6.22;;;14.10;99.90;;;;;;5016819;28;20018;-71
2023/10/03 04:36:47;;;;;;;19.15;6.40;;;14.20;99.90;;;;;;5016678;28;20022;-72
2023/10/03 04:39:13;;;;;;;15.07;6.30;;;14.10;99.90;;;;;;5016023;28;20024;-71
2023/10/03 04:41:45;;;;;;;17.67;7.10;;;14.10;99.90;;;;;;5016736;28;20101;-71
2023/10/03 04:44:15;;;;;;;19.45;7.10;;;14.10;99.90;;;;;;5017011;28;20021;-71
2023/10/03 04:46:40;;;;;;;13.65;6.38;;;14.20;99.90;;;;;;5016680;28;20026;-71
2023/10/03 04:49:07;;;;;;;20.73;6.68;;;14.10;99.90;;;;;;5015934;28;20037;-72
2023/10/03 04:51:33;;;;;;;17.25;6.15;;;14.00;99.90;;;;;;5016098;28;20049;-72
2023/10/03 04:53:58;;;;;;;20.75;6.65;;;13.90;99.90;;;;;;5016578;28;20055;-71
2023/10/03 04:56:24;;;;;;;16.67;6.13;;;13.90;99.90;;;;;;5016105;28;20022;-72
2023/10/03 04:58:49;;;;;;;15.98;6.53;;;14.00;99.90;;;;;;5016850;28;20033;-71
2023/10/03 05:01:15;;;;;;;18.30;7.07;;;14.20;99.90;;;;;;5016596;28;20034;-71
2023/10/03 05:03:40;;;;;;;17.92;7.53;;;14.20;99.90;;;;;;5016747;28;20030;-71
2023/10/03 05:06:06;;;;;;;20.90;7.28;;;14.20;99.90;;;;;;5019023;28;20034;-71
2023/10/03 05:08:31;;;;;;;15.80;6.70;;;14.20;99.90;;;;;;5019315;28;20018;-71
2023/10/03 05:11:02;;;;;;;15.90;6.78;;;14.10;99.90;;;;;;5019395;28;20080;-70
2023/10/03 05:13:28;;;;;;;18.05;6.70;;;14.10;99.90;;;;;;5020249;28;20025;-71
2023/10/03 05:15:54;;;;;;;18.02;7.18;;;14.10;99.90;;;;;;5020255;28;20034;-71
2023/10/03 05:18:20;;;;;;;17.38;7.38;;;14.10;99.90;;;;;;5019938;28;20077;-70
2023/10/03 05:20:45;;;;;;;23.15;7.63;;;14.10;99.90;;;;;;5019359;28;20026;-71
2023/10/03 05:23:14;;;;;;;18.35;6.97;;;14.10;99.90;;;;;;5020127;28;20026;-70
2023/10/03 05:25:42;;;;;;;18.48;6.75;;;14.10;99.90;;;;;;5019791;28;20022;-71
2023/10/03 05:28:11;;;;;;;20.05;8.13;;;14.10;99.90;;;;;;5018837;28;20049;-72
2023/10/03 05:30:38;;;;;;;16.25;7.25;;;14.10;99.90;;;;;;5018729;28;20213;-70
2023/10/03 05:33:06;;;;;;;18.02;6.65;;;14.10;99.90;;;;;;5019852;28;20052;-71
2023/10/03 05:35:32;;;;;;;15.95;7.45;;;14.20;99.90;;;;;;5019601;28;20049;-69
2023/10/03 05:37:57;;;;;;;19.13;6.97;;;14.30;99.90;;;;;;5018974;28;20021;-68
2023/10/03 05:40:23;;;;;;;22.67;8.82;;;14.40;99.90;;;;;;5018766;28;20018;-69
2023/10/03 05:42:49;;;;;;;23.98;8.00;;;14.50;99.90;;;;;;5018674;28;20129;-69
2023/10/03 05:45:18;;;;;;;23.48;7.95;;;14.60;99.90;;;;;;5019710;28;20034;-68
2023/10/03 05:47:48;;;;;;;23.58;8.75;;;14.70;99.90;;;;;;5019571;28;20014;-68
2023/10/03 05:50:15;;;;;;;20.85;7.18;;;14.70;99.90;;;;;;5018876;28;20112;-68
2023/10/03 05:52:44;;;;;;;17.17;7.53;;;14.50;99.90;;;;;;5018739;28;20030;-69
2023/10/03 05:55:09;;;;;;;20.75;7.93;;;14.50;99.90;;;;;;5019097;28;20033;-68
2023/10/03 05:57:38;;;;;;;19.35;7.30;;;14.50;99.90;;;;;;5018389;28;20026;-68
2023/10/03 06:00:08;;;;;;;16.88;6.80;;;14.60;99.90;;;;;;5018703;28;20036;-71
2023/10/03 06:02:35;;;;;;;21.25;8.25;;;14.50;99.90;;;;;;5019365;28;20018;-71
2023/10/03 06:05:00;;;;;;;20.80;7.35;;;14.70;99.90;;;;;;5019027;28;20022;-67
2023/10/03 06:07:26;;;;;;;21.80;8.73;;;14.80;99.90;;;;;;5018886;28;20026;-65
2023/10/03 06:09:53;;;;;;;20.80;8.18;;;14.90;99.90;;;;;;5018145;28;20025;-65
2023/10/03 06:12:19;;;;;;;28.75;10.10;;;15.10;99.90;;;;;;5018935;28;20045;-65
2023/10/03 06:14:44;;;;;;;26.48;9.35;;;15.20;99.90;;;;;;5018955;28;20064;-65
2023/10/03 06:17:12;;;;;;;19.80;8.45;;;15.30;99.90;;;;;;5017714;28;20038;-65
2023/10/03 06:19:37;;;;;;;22.98;9.30;;;15.20;99.90;;;;;;5017911;28;20090;-67
2023/10/03 06:22:05;;;;;;;25.70;9.88;;;15.10;99.90;;;;;;5017945;28;20156;-67
2023/10/03 06:24:31;;;;;;;24.80;9.13;;;15.00;99.90;;;;;;5018576;28;20104;-67
2023/10/03 06:26:57;;;;;;;25.15;10.75;;;15.00;99.90;;;;;;5017851;28;20026;-67
2023/10/03 06:29:23;;;;;;;18.10;8.52;;;14.90;99.90;;;;;;5017717;28;20037;-68
2023/10/03 06:31:51;;;;;;;22.85;9.32;;;14.80;99.90;;;;;;5017732;28;20026;-67
2023/10/03 06:34:18;;;;;;;25.60;9.77;;;14.80;99.90;;;;;;5018613;28;20137;-67
2023/10/03 06:36:44;;;;;;;19.25;8.95;;;14.90;99.90;;;;;;5018364;28;20021;-67
2023/10/03 06:39:09;;;;;;;21.10;9.43;;;14.90;99.90;;;;;;5017559;28;20022;-67
2023/10/03 06:41:35;;;;;;;22.45;9.05;;;14.90;99.90;;;;;;5018237;28;20093;-67
2023/10/03 06:44:01;;;;;;;25.60;9.57;;;14.90;99.90;;;;;;5017791;28;20028;-67
2023/10/03 06:46:27;;;;;;;22.63;9.48;;;15.00;99.90;;;;;;5018218;28;20036;-67
2023/10/03 06:48:54;;;;;;;23.88;10.13;;;15.10;99.90;;;;;;5017382;28;20109;-67
2023/10/03 06:51:19;;;;;;;23.85;9.48;;;15.10;99.90;;;;;;5017767;28;20022;-67
2023/10/03 06:53:48;;;;;;;24.48;9.52;;;15.10;99.90;;;;;;5018231;28;20029;-67
2023/10/03 06:56:15;;;;;;;25.73;9.70;;;15.20;99.90;;;;;;5018043;28;20049;-67
2023/10/03 06:58:41;;;;;;;27.55;8.77;;;15.30;99.90;;;;;;5018126;28;20026;-67
2023/10/03 07:01:11;;;;;;;26.52;10.65;;;15.30;99.90;;;;;;5017184;28;20128;-67
2023/10/03 07:03:37;;;;;;;29.83;9.95;;;15.30;99.90;;;;;;5018148;28;20033;-67
2023/10/03 07:06:03;;;;;;;24.40;10.32;;;15.40;99.90;;;;;;5017739;28;20026;-66
2023/10/03 07:08:28;;;;;;;28.02;10.20;;;15.60;99.90;;;;;;5017020;28;20022;-66
2023/10/03 07:10:56;;;;;;;39.05;11.68;;;15.70;99.90;;;;;;5017812;28;20018;-65
2023/10/03 07:13:24;;;;;;;28.13;10.40;;;15.80;99.90;;;;;;5017836;28;20045;-65
2023/10/03 07:15:49;;;;;;;31.20;10.50;;;15.80;99.90;;;;;;5017675;28;20034;-66
2023/10/03 07:18:17;;;;;;;27.67;9.70;;;15.90;99.90;;;;;;5018038;28;20029;-65
2023/10/03 07:20:43;;;;;;;21.80;9.98;;;16.00;99.90;;;;;;5016815;28;20026;-65
2023/10/03 07:23:08;;;;;;;24.85;10.88;;;16.00;99.90;;;;;;5017033;28;20040;-65
2023/10/03 07:25:34;;;;;;;24.48;10.85;;;16.00;99.90;;;;;;5016620;28;20018;-65
2023/10/03 07:28:00;;;;;;;26.42;10.88;;;15.90;99.90;;;;;;5017555;28;20029;-65
2023/10/03 07:30:26;;;;;;;30.08;11.02;;;16.00;99.90;;;;;;5018318;28;20022;-65
2023/10/03 07:32:51;;;;;;;29.35;11.40;;;15.90;99.90;;;;;;5016713;28;20113;-65
2023/10/03 07:35:19;;;;;;;29.90;11.05;;;16.00;99.90;;;;;;5016979;28;20037;-65
2023/10/03 07:37:45;;;;;;;26.85;10.85;;;16.10;99.90;;;;;;5017625;28;20025;-66
2023/10/03 07:40:11;;;;;;;26.75;11.20;;;16.10;99.90;;;;;;5017695;28;20029;-65
2023/10/03 07:42:40;;;;;;;26.95;10.48;;;16.20;99.90;;;;;;5016409;28;20064;-65
2023/10/03 07:45:07;;;;;;;27.48;10.95;;;16.20;99.90;;;;;;5016456;28;20033;-65
2023/10/03 07:47:33;;;;;;;28.58;11.15;;;16.30;99.90;;;;;;5017112;28;20046;-65
2023/10/03 07:50:00;;;;;;;27.40;10.32;;;16.20;99.90;;;;;;5017302;28;20018;-66
2023/10/03 07:52:27;;;;;;;29.60;11.80;;;16.40;99.90;;;;;;5016406;28;20022;-65
2023/10/03 07:54:56;;;;;;;29.58;11.73;;;16.60;99.90;;;;;;5016612;28;20076;-66
2023/10/03 07:57:25;;;;;;;31.98;13.13;;;16.40;99.90;;;;;;5017257;28;20018;-65
2023/10/03 07:59:52;;;;;;;28.85;11.32;;;16.30;99.90;;;;;;5017424;28;20022;-66
2023/10/03 08:02:17;;;;;;;30.45;11.27;;;16.40;99.90;;;;;;5016221;28;20030;-65
2023/10/03 08:04:46;;;;;;;31.02;11.13;;;16.50;99.90;;;;;;5017476;28;20033;-65
2023/10/03 08:07:21;;;;;;;24.70;10.15;;;16.60;99.90;;;;;;5017073;28;20045;-65
2023/10/03 08:09:48;;;;;;;33.70;10.60;;;16.70;99.90;;;;;;5016387;28;20030;-66
2023/10/03 08:12:14;;;;;;;28.20;11.07;;;16.80;99.90;;;;;;5016161;28;20045;-65
2023/10/03 08:14:40;;;;;;;28.08;10.55;;;16.90;99.90;;;;;;5016256;28;20057;-65
2023/10/03 08:17:06;;;;;;;24.50;10.65;;;17.10;99.90;;;;;;5016414;28;20070;-68
2023/10/03 08:19:32;;;;;;;22.13;10.82;;;17.20;99.90;;;;;;5016956;28;20110;-68
2023/10/03 08:21:58;;;;;;;28.00;10.98;;;17.40;99.90;;;;;;5016163;28;20125;-65
2023/10/03 08:24:25;;;;;;;30.02;11.65;;;17.60;99.90;;;;;;5017179;28;20069;-65
2023/10/03 08:27:02;;;;;;;25.42;10.65;;;17.70;99.90;;;;;;5016079;28;20026;-66
2023/10/03 08:29:28;;;;;;;25.55;11.00;;;17.70;99.90;;;;;;5017177;28;20038;-66
2023/10/03 08:31:58;;;;;;;25.98;11.23;;;17.70;99.90;;;;;;5016804;28;20026;-65
2023/10/03 08:34:28;;;;;;;24.23;10.23;;;17.70;99.90;;;;;;5016112;28;20045;-65
2023/10/03 08:36:58;;;;;;;20.83;10.00;;;17.80;99.90;;;;;;5016198;28;20065;-66
2023/10/03 08:39:25;;;;;;;24.35;10.63;;;17.70;99.90;;;;;;5016441;28;20022;-66
2023/10/03 08:42:15;;;;;;;25.33;10.88;;;17.70;99.90;;;;;;5020868;28;20022;-66
2023/10/03 08:44:56;;;;;;;30.13;11.15;;;17.80;99.90;;;;;;5019622;28;20116;-66
2023/10/03 08:47:34;;;;;;;23.40;9.88;;;17.80;99.90;;;;;;5020419;28;20014;-66
2023/10/03 08:50:14;;;;;;;23.85;10.02;;;17.80;99.90;;;;;;5020490;28;20062;-66
2023/10/03 08:52:47;;;;;;;24.83;10.73;;;17.90;99.90;;;;;;5020725;28;20018;-65
2023/10/03 08:55:19;;;;;;;28.45;12.07;;;17.80;99.90;;;;;;5019566;28;20025;-65
2023/10/03 08:57:47;;;;;;;25.55;10.55;;;17.70;99.90;;;;;;5019773;28;20026;-66
2023/10/03 09:00:13;;;;;;;26.65;10.98;;;17.70;99.90;;;;;;5019717;28;20026;-66
2023/10/03 09:02:47;;;;;;;29.83;11.77;;;17.80;99.90;;;;;;5020244;28;20079;-66
2023/10/03 09:05:20;;;;;;;26.65;10.73;;;18.00;99.90;;;;;;5020662;28;20029;-66
2023/10/03 09:07:50;;;;;;;22.50;10.02;;;18.10;99.90;;;;;;5020116;28;20029;-66
2023/10/03 09:10:23;;;;;;;34.58;10.27;;;18.30;99.90;;;;;;5020052;28;20152;-66
2023/10/03 09:12:52;;;;;;;20.65;9.05;;;18.20;99.90;;;;;;5020303;28;20054;-66
2023/10/03 09:15:19;;;;;;;23.27;9.38;;;18.30;99.90;;;;;;5019918;28;20030;-66
2023/10/03 09:17:49;;;;;;;26.38;9.73;;;18.40;99.90;;;;;;5019791;28;20038;-65
2023/10/03 09:20:22;;;;;;;19.90;8.87;;;18.50;99.90;;;;;;5019999;28;20026;-66
2023/10/03 09:22:48;;;;;;;29.83;9.02;;;18.50;99.90;;;;;;5019972;28;20269;-66
2023/10/03 09:25:16;;;;;;;25.90;9.75;;;18.60;99.90;;;;;;5019684;28;20026;-65
2023/10/03 09:27:42;;;;;;;19.77;9.38;;;18.50;99.90;;;;;;5019119;28;20022;-65
2023/10/03 09:30:22;;;;;;;25.75;9.70;;;18.60;99.90;;;;;;5018878;28;20121;-66
2023/10/03 09:32:53;;;;;;;24.40;9.45;;;18.60;99.90;;;;;;5019049;28;20026;-66
2023/10/03 09:35:19;;;;;;;22.00;10.15;;;18.60;99.90;;;;;;5018820;28;20034;-66
2023/10/03 09:37:48;;;;;;;23.65;8.68;;;18.60;99.90;;;;;;5018959;28;20033;-65
2023/10/03 09:40:18;;;;;;;21.48;8.93;;;18.60;99.90;;;;;;5019775;28;20088;-65
2023/10/03 09:42:48;;;;;;;22.55;8.20;;;18.60;99.90;;;;;;5019499;28;20022;-65
2023/10/03 09:45:18;;;;;;;15.82;7.03;;;18.90;99.90;;;;;;5019508;28;20026;-65
2023/10/03 09:47:45;;;;;;;14.65;7.93;;;19.10;99.90;;;;;;5019423;28;20022;-65
2023/10/03 09:50:12;;;;;;;16.15;7.57;;;19.20;99.90;;;;;;5018356;28;20022;-65
2023/10/03 09:52:39;;;;;;;21.70;8.30;;;19.30;99.90;;;;;;5018299;28;20022;-66
2023/10/03 09:55:26;;;;;;;16.10;7.10;;;19.40;99.90;;;;;;5019360;28;20030;-66
2023/10/03 09:57:59;;;;;;;18.25;6.82;;;19.50;99.90;;;;;;5019406;28;20033;-65
2023/10/03 10:03:19;;;;;;;15.18;6.70;;;19.80;99.90;;;;;;5019402;28;20033;-66
2023/10/03 10:06:14;;;;;;;15.13;6.28;;;19.90;99.90;;;;;;5018917;28;20075;-66
2023/10/03 10:08:58;;;;;;;17.83;6.78;;;20.10;99.90;;;;;;5018187;28;20018;-65
2023/10/03 10:11:26;;;;;;;13.85;6.47;;;20.20;99.90;;;;;;5019240;28;20018;-65
2023/10/03 10:14:16;;;;;;;12.50;6.07;;;20.30;99.90;;;;;;5018974;28;20072;-65
2023/10/03 10:17:03;;;;;;;13.00;6.32;;;20.40;99.90;;;;;;5018246;28;20036;-65
2023/10/03 10:20:17;;;;;;;16.17;5.65;;;20.50;99.90;;;;;;5018821;28;20027;-65
2023/10/03 10:23:20;;;;;;;15.38;6.15;;;20.60;99.90;;;;;;5005589;28;20033;-65
2023/10/03 10:25:51;;;;;;;13.20;6.28;;;20.80;99.90;;;;;;5018364;28;20034;-65
2023/10/03 10:28:26;;;;;;;11.00;5.63;;;20.90;99.90;;;;;;5018769;28;20018;-65
2023/10/03 10:31:34;;;;;;;10.05;4.95;;;21.00;99.90;;;;;;5018583;28;20105;-65
2023/10/03 10:34:20;;;;;;;12.50;5.70;;;21.30;99.90;;;;;;4942688;29;20023;-65
2023/10/03 10:37:15;;;;;;;18.42;6.20;;;21.60;99.90;;;;;;4942754;29;20027;-65
2023/10/03 10:40:17;;;;;;;11.88;5.50;;;21.90;99.90;;;;;;4958823;29;20034;-65
2023/10/03 10:42:55;;;;;;;11.75;5.38;;;22.00;99.90;;;;;;4942744;29;20050;-65
2023/10/03 10:45:21;;;;;;;13.43;5.13;;;22.20;99.90;;;;;;4942821;29;20110;-65
2023/10/03 10:47:54;;;;;;;11.48;4.90;;;22.20;99.90;;;;;;4958722;28;20031;-65
2023/10/03 10:50:25;;;;;;;11.27;4.90;;;22.20;99.90;;;;;;4958871;29;20039;-65
2023/10/03 10:52:57;;;;;;;10.73;4.63;;;22.10;99.90;;;;;;4958602;29;20023;-65
2023/10/03 10:55:24;;;;;;;14.07;4.68;;;22.00;99.90;;;;;;4958395;28;20038;-65
2023/10/03 10:58:08;;;;;;;11.50;5.00;;;22.10;99.90;;;;;;4958591;28;20036;-65
2023/10/03 11:00:34;;;;;;;14.32;5.10;;;22.20;99.90;;;;;;4958151;28;20039;-65
2023/10/03 11:03:02;;;;;;;10.63;4.80;;;22.30;99.90;;;;;;4957517;28;20027;-65
2023/10/03 11:05:49;;;;;;;9.35;4.88;;;22.40;99.90;;;;;;4957868;29;20038;-65
2023/10/03 11:08:15;;;;;;;9.35;4.32;;;22.30;99.90;;;;;;4998412;28;20040;-65
2023/10/03 11:10:55;;;;;;;7.97;4.30;;;22.20;99.90;;;;;;5017512;28;20026;-65
2023/10/03 11:13:21;;;;;;;10.32;3.97;;;22.10;99.90;;;;;;5017991;28;20101;-65
2023/10/03 11:15:48;;;;;;;12.68;4.38;;;22.00;99.90;;;;;;5017601;28;20033;-65
2023/10/03 11:18:26;;;;;;;9.65;4.68;;;21.90;99.90;;;;;;5017449;28;20113;-65
2023/10/03 11:20:52;;;;;;;9.70;4.80;;;22.10;99.90;;;;;;5017330;28;20026;-65
2023/10/03 11:23:18;;;;;;;9.02;4.50;;;22.20;99.90;;;;;;5018022;28;20053;-65
2023/10/03 11:26:00;;;;;;;14.10;4.57;;;22.30;99.90;;;;;;5017634;28;20033;-65
2023/10/03 11:28:30;;;;;;;8.90;4.78;;;22.20;99.90;;;;;;5016756;28;20044;-65
2023/10/03 11:31:03;;;;;;;6.63;4.22;;;22.10;99.90;;;;;;5017628;28;20017;-65
2023/10/03 11:33:40;;;;;;;8.55;3.90;;;22.00;99.90;;;;;;5017618;28;20077;-65
2023/10/03 11:36:07;;;;;;;9.93;4.07;;;21.90;99.90;;;;;;5017803;28;20021;-65
2023/10/03 11:38:46;;;;;;;7.80;4.53;;;21.90;99.90;;;;;;5017386;28;20105;-65
2023/10/03 11:41:12;;;;;;;8.50;4.32;;;21.90;99.90;;;;;;5016658;28;20032;-65
2023/10/03 11:43:46;;;;;;;5.07;3.55;;;21.80;99.90;;;;;;5016601;28;20124;-65
2023/10/03 11:46:12;;;;;;;11.77;3.88;;;21.80;99.90;;;;;;5017777;28;20022;-65
2023/10/03 11:48:38;;;;;;;7.13;3.88;;;21.80;99.90;;;;;;5017420;28;20018;-65
2023/10/03 11:51:04;;;;;;;9.70;3.70;;;21.90;99.90;;;;;;5017571;28;20080;-65
2023/10/03 11:53:31;;;;;;;7.72;3.60;;;21.90;99.90;;;;;;5017394;28;20056;-65
2023/10/03 11:55:57;;;;;;;7.30;3.28;;;21.90;99.90;;;;;;5017359;28;20033;-65
2023/10/03 11:58:23;;;;;;;5.95;3.17;;;21.90;99.90;;;;;;5017479;28;20030;-65
2023/10/03 12:00:51;;;;;;;8.82;3.22;;;21.90;99.90;;;;;;5017335;28;20028;-65
2023/10/03 12:03:17;;;;;;;6.78;3.38;;;21.80;99.90;;;;;;5016287;28;20026;-65
2023/10/03 12:05:45;;;;;;;5.85;3.08;;;21.70;99.90;;;;;;5016282;28;20049;-65
2023/10/03 12:08:12;;;;;;;5.50;3.22;;;21.60;99.90;;;;;;5016235;28;20057;-65
2023/10/03 12:10:40;;;;;;;8.75;3.97;;;21.50;99.90;;;;;;5016596;28;20026;-65
2023/10/03 12:13:05;;;;;;;8.52;3.40;;;21.50;99.90;;;;;;5016354;28;20026;-65
2023/10/03 12:15:31;;;;;;;7.35;4.20;;;21.50;99.90;;;;;;5020604;28;20037;-65
2023/10/03 12:17:58;;;;;;;9.63;4.25;;;21.40;99.90;;;;;;5021429;28;20061;-66
2023/10/03 12:20:24;;;;;;;10.82;4.38;;;21.40;99.90;;;;;;5021308;28;20026;-65
2023/10/03 12:22:53;;;;;;;8.55;4.30;;;21.20;99.90;;;;;;5020429;28;20033;-65
2023/10/03 12:25:24;;;;;;;7.00;4.22;;;21.10;99.90;;;;;;5021044;28;20030;-65
2023/10/03 12:27:49;;;;;;;10.40;3.92;;;21.10;99.90;;;;;;5020954;28;20025;-65
2023/10/03 12:30:16;;;;;;;7.07;4.30;;;21.10;99.90;;;;;;5020086;28;20026;-65
2023/10/03 12:32:47;;;;;;;9.85;4.75;;;20.90;99.90;;;;;;5020284;28;20026;-66
2023/10/03 12:35:13;;;;;;;9.82;4.18;;;20.80;99.90;;;;;;5020876;28;20108;-65
2023/10/03 12:37:40;;;;;;;8.10;4.43;;;20.70;99.90;;;;;;5020816;28;20101;-65
2023/10/03 12:40:13;;;;;;;8.30;4.75;;;20.70;99.90;;;;;;5020641;28;20061;-65
2023/10/03 12:42:48;;;;;;;9.77;5.07;;;20.70;99.90;;;;;;5019756;28;20101;-65
2023/10/03 12:45:20;;;;;;;9.57;3.95;;;20.70;99.90;;;;;;5020004;28;20036;-66
2023/10/03 12:47:49;;;;;;;;;;;20.50;99.90;;;;;;5020975;28;20018;-65
2023/10/03 12:50:16;;;;;;;11.23;3.80;;;20.50;99.90;;;;;;5019560;28;19909;-65